Yuanmou, China
Current Conditions -  °F | °C
As of 8:00 PM on Tuesday 21 Oct 2014 (Local Time) from ZPPP Reporting Station
Few Clouds Few Clouds  
Wind Chill: 59°   Ceiling: Unl
Heat Index: 59°   Visibility: 6mi
Dew Point: 46°   Wind: 2mph
Humidity: 63%   Direction: NA
Pressure: 30.33"   Gusts: NA
Location:  25.73°N, 101.87°E
Report Text: ZPPP 211200Z VRB01MPS 9999 FEW026 15/08 Q1027 NOSIG
Loading
Personal Weather Stations






























Interactive Weather Map
Tropical Storm Tracking
New forecast layout! Learn more

10-Day Weather Forecast

Advertisements
Track Severe Weather on mobile